Time;durP1;ratioP1;P1;durP2;ratioP2;P2;SDS_P1;SDS_P2;PMS_P1;PMS_P2;Temp;Humidity;BMP_temperature;BMP_pressure;BME280_temperature;BME280_humidity;BME280_pressure;Samples;Min_cycle;Max_cycle;Signal;HPM_P1;HPM_P2
2022/01/06 00:00:15;;;;;;;12.57;4.43;;;;;;;;;;2079678;28;20180;-59
2022/01/06 00:01:17;;;;;;;13.67;4.20;;;;;;;;;;2087602;28;20694;-57
2022/01/06 00:02:17;;;;;;;6.87;3.90;;;;;;;;;;2072320;28;20260;-57
2022/01/06 00:03:18;;;;;;;13.27;4.40;;;;;;;;;;2066973;28;20212;-58
2022/01/06 00:04:18;;;;;;;16.43;4.63;;;;;;;;;;2080067;28;20206;-58
2022/01/06 00:05:18;;;;;;;16.43;5.13;;;;;;;;;;2087395;28;20262;-56
2022/01/06 00:06:20;;;;;;;12.63;4.33;;;;;;;;;;2088989;28;20186;-57
2022/01/06 00:07:21;;;;;;;22.90;5.37;;;;;;;;;;2088907;28;20191;-59
2022/01/06 00:08:21;;;;;;;17.83;4.93;;;;;;;;;;2080366;28;20227;-58
2022/01/06 00:09:21;;;;;;;14.37;4.40;;;;;;;;;;2074771;28;20180;-57
2022/01/06 00:10:23;;;;;;;14.90;4.60;;;;;;;;;;2087005;28;20266;-55
2022/01/06 00:11:24;;;;;;;11.87;3.97;;;;;;;;;;2084441;28;20179;-58
2022/01/06 00:12:33;;;;;;;11.33;4.17;;;;;;;;;;2075395;28;20172;-59
2022/01/06 00:13:59;;;;;;;12.40;4.00;;;;;;;;;;2078980;28;20168;-58
2022/01/06 00:15:23;;;;;;;15.80;4.83;;;;;;;;;;2087227;28;20172;-62
2022/01/06 00:17:53;;;;;;;10.57;3.90;;;;;;;;;;2088607;28;20190;-55
2022/01/06 00:24:00;;;;;;;10.20;4.23;;;;;;;;;;2085539;28;20182;-57
2022/01/06 00:25:00;;;;;;;12.00;4.10;;;;;;;;;;2091778;28;20556;-59
2022/01/06 00:26:01;;;;;;;11.63;4.33;;;;;;;;;;2091067;28;20229;-57
2022/01/06 00:27:02;;;;;;;17.63;5.40;;;;;;;;;;2092336;28;20184;-52
2022/01/06 00:28:02;;;;;;;9.33;4.17;;;;;;;;;;2080009;28;20192;-54
2022/01/06 00:29:02;;;;;;;17.40;4.97;;;;;;;;;;2083730;28;20169;-59
2022/01/06 00:30:03;;;;;;;15.00;4.83;;;;;;;;;;2089627;28;20221;-56
2022/01/06 00:31:04;;;;;;;22.17;5.40;;;;;;;;;;2090338;28;20194;-59
2022/01/06 00:32:04;;;;;;;12.07;5.33;;;;;;;;;;2090119;28;20237;-57
2022/01/06 00:33:05;;;;;;;12.87;4.67;;;;;;;;;;2089874;28;20603;-57
2022/01/06 00:34:10;;;;;;;11.97;4.57;;;;;;;;;;2089785;28;20847;-60
2022/01/06 00:35:10;;;;;;;17.30;5.03;;;;;;;;;;2089077;28;20180;-54
2022/01/06 00:36:10;;;;;;;15.13;4.50;;;;;;;;;;2089980;28;20582;-57
2022/01/06 00:37:10;;;;;;;20.73;6.40;;;;;;;;;;2089749;28;20183;-60
2022/01/06 00:38:11;;;;;;;11.67;4.57;;;;;;;;;;2089757;28;20250;-58
2022/01/06 00:39:11;;;;;;;14.93;4.50;;;;;;;;;;2089689;28;20221;-60
2022/01/06 00:40:11;;;;;;;21.27;6.50;;;;;;;;;;2080604;28;20180;-59
2022/01/06 00:41:12;;;;;;;12.33;4.33;;;;;;;;;;2073063;28;20180;-59
2022/01/06 00:42:13;;;;;;;11.47;5.10;;;;;;;;;;2081311;28;20184;-58
2022/01/06 00:43:13;;;;;;;11.47;5.53;;;;;;;;;;2090150;28;20235;-56
2022/01/06 00:44:14;;;;;;;14.00;4.73;;;;;;;;;;2090623;28;20266;-58
2022/01/06 00:45:14;;;;;;;15.37;4.50;;;;;;;;;;2089610;28;20191;-58
2022/01/06 00:46:15;;;;;;;11.93;4.87;;;;;;;;;;2091097;28;20176;-60
2022/01/06 00:47:15;;;;;;;10.03;3.90;;;;;;;;;;2090187;28;20564;-55
2022/01/06 00:48:15;;;;;;;13.23;4.23;;;;;;;;;;2092519;28;20506;-60
2022/01/06 00:49:17;;;;;;;16.47;4.83;;;;;;;;;;2091037;28;20163;-59
2022/01/06 00:50:17;;;;;;;15.33;5.20;;;;;;;;;;2090919;28;20184;-59
2022/01/06 00:51:17;;;;;;;14.37;4.90;;;;;;;;;;2082372;28;20215;-59
2022/01/06 00:52:17;;;;;;;12.17;4.20;;;;;;;;;;2082350;28;20199;-59
2022/01/06 00:53:18;;;;;;;13.93;5.23;;;;;;;;;;2091987;28;20209;-57
2022/01/06 00:54:18;;;;;;;13.17;5.17;;;;;;;;;;2091100;28;20183;-61
2022/01/06 00:55:18;;;;;;;11.50;4.90;;;;;;;;;;2081848;28;20195;-57
2022/01/06 00:56:19;;;;;;;12.80;4.63;;;;;;;;;;2082459;28;20183;-61
2022/01/06 00:57:19;;;;;;;15.27;4.40;;;;;;;;;;2091257;28;21564;-61
2022/01/06 00:58:19;;;;;;;18.60;4.90;;;;;;;;;;2091550;28;20652;-61
2022/01/06 00:59:19;;;;;;;18.27;4.57;;;;;;;;;;2091404;28;20202;-60
2022/01/06 01:00:20;;;;;;;7.73;4.47;;;;;;;;;;2091331;28;20179;-60
2022/01/06 01:01:20;;;;;;;12.67;4.70;;;;;;;;;;2082392;28;20516;-57
2022/01/06 01:02:20;;;;;;;12.47;4.00;;;;;;;;;;2081751;28;20187;-60
2022/01/06 01:03:21;;;;;;;11.07;4.53;;;;;;;;;;2088865;28;20531;-59
2022/01/06 01:04:21;;;;;;;17.43;5.27;;;;;;;;;;2084931;28;20176;-61
2022/01/06 01:05:22;;;;;;;15.00;4.83;;;;;;;;;;2091423;28;20206;-61
2022/01/06 01:06:22;;;;;;;16.00;4.47;;;;;;;;;;2085512;28;20281;-60
2022/01/06 01:07:22;;;;;;;20.50;4.67;;;;;;;;;;2092006;28;20195;-61
2022/01/06 01:08:24;;;;;;;11.93;4.20;;;;;;;;;;2082053;28;20259;-55
2022/01/06 01:09:24;;;;;;;16.13;4.93;;;;;;;;;;2082219;28;20181;-57
2022/01/06 01:10:24;;;;;;;14.43;4.57;;;;;;;;;;2088269;28;20277;-56
2022/01/06 01:11:25;;;;;;;13.37;3.97;;;;;;;;;;2085015;28;20176;-55
2022/01/06 01:12:27;;;;;;;12.60;4.53;;;;;;;;;;2090965;28;20660;-57
2022/01/06 01:13:28;;;;;;;14.43;4.77;;;;;;;;;;2091165;28;20198;-57
2022/01/06 01:14:32;;;;;;;14.80;4.40;;;;;;;;;;2090751;28;20640;-60
2022/01/06 01:15:34;;;;;;;12.00;5.13;;;;;;;;;;2081666;28;20180;-58
2022/01/06 01:16:34;;;;;;;10.83;5.10;;;;;;;;;;2082171;28;20212;-59
2022/01/06 01:17:35;;;;;;;13.87;4.77;;;;;;;;;;2090826;28;20192;-59
2022/01/06 01:18:35;;;;;;;11.93;5.30;;;;;;;;;;2090549;28;20193;-60
2022/01/06 01:19:35;;;;;;;15.53;4.50;;;;;;;;;;2090807;28;20206;-57
2022/01/06 01:20:36;;;;;;;5.87;3.77;;;;;;;;;;2089541;28;20179;-58
2022/01/06 01:21:36;;;;;;;17.40;5.10;;;;;;;;;;2082869;28;20609;-59
2022/01/06 01:22:36;;;;;;;10.43;3.73;;;;;;;;;;2089085;28;20603;-61
2022/01/06 01:23:36;;;;;;;8.93;3.50;;;;;;;;;;2090771;28;20274;-60
2022/01/06 01:24:36;;;;;;;9.07;3.73;;;;;;;;;;2090694;28;20172;-58
2022/01/06 01:25:37;;;;;;;15.07;3.67;;;;;;;;;;2090090;28;20175;-58
2022/01/06 01:26:37;;;;;;;8.23;3.37;;;;;;;;;;2080811;28;20191;-56
2022/01/06 01:27:41;;;;;;;11.43;3.90;;;;;;;;;;2081506;28;20196;-58
2022/01/06 01:28:46;;;;;;;13.00;3.83;;;;;;;;;;2090621;28;20254;-55
2022/01/06 01:29:58;;;;;;;10.93;3.93;;;;;;;;;;2081925;28;20657;-57
2022/01/06 01:31:18;;;;;;;9.13;3.63;;;;;;;;;;2081950;28;20200;-58
2022/01/06 01:32:27;;;;;;;6.43;3.50;;;;;;;;;;2082067;28;20164;-57
2022/01/06 01:33:29;;;;;;;15.50;3.83;;;;;;;;;;2081527;28;20598;-57
2022/01/06 01:34:29;;;;;;;14.50;4.33;;;;;;;;;;2085080;28;20253;-56
2022/01/06 01:35:32;;;;;;;8.00;3.70;;;;;;;;;;2080704;28;20176;-56
2022/01/06 01:36:32;;;;;;;13.43;3.60;;;;;;;;;;2081756;28;20175;-59
2022/01/06 01:37:32;;;;;;;13.47;3.53;;;;;;;;;;2090859;28;20261;-55
2022/01/06 01:38:33;;;;;;;9.37;3.27;;;;;;;;;;2090691;28;20171;-57
2022/01/06 01:39:33;;;;;;;9.00;3.47;;;;;;;;;;2081758;28;20203;-57
2022/01/06 01:40:33;;;;;;;6.17;3.60;;;;;;;;;;2081835;28;20259;-58
2022/01/06 01:41:33;;;;;;;10.40;3.50;;;;;;;;;;2082215;28;20171;-58
2022/01/06 01:42:34;;;;;;;15.60;4.00;;;;;;;;;;2081886;28;20259;-57
2022/01/06 01:43:35;;;;;;;6.53;3.23;;;;;;;;;;2091251;28;20175;-58
2022/01/06 01:44:35;;;;;;;8.57;4.10;;;;;;;;;;2090667;28;20182;-61
2022/01/06 01:45:39;;;;;;;9.23;3.33;;;;;;;;;;2090582;28;20170;-57
2022/01/06 01:46:45;;;;;;;6.67;2.97;;;;;;;;;;2090895;28;20188;-57
2022/01/06 01:47:46;;;;;;;7.27;2.63;;;;;;;;;;2090818;28;20519;-58
2022/01/06 01:48:53;;;;;;;7.60;3.40;;;;;;;;;;2090867;28;20171;-59
2022/01/06 01:49:58;;;;;;;8.47;3.17;;;;;;;;;;2090803;28;20160;-60
2022/01/06 01:50:58;;;;;;;9.00;3.20;;;;;;;;;;2091274;28;20174;-58
2022/01/06 01:51:58;;;;;;;12.70;3.40;;;;;;;;;;2091150;28;20260;-58
2022/01/06 01:52:59;;;;;;;11.60;3.30;;;;;;;;;;2090880;28;20182;-58
2022/01/06 01:54:00;;;;;;;8.93;3.73;;;;;;;;;;2082020;28;20212;-57
2022/01/06 01:55:00;;;;;;;9.40;3.47;;;;;;;;;;2081539;28;20183;-56
2022/01/06 01:56:00;;;;;;;8.67;3.00;;;;;;;;;;2082030;28;20183;-55
2022/01/06 01:57:00;;;;;;;8.73;3.47;;;;;;;;;;2081810;28;20176;-55
2022/01/06 01:58:01;;;;;;;9.43;3.40;;;;;;;;;;2090608;28;20182;-56
2022/01/06 01:59:01;;;;;;;8.10;3.50;;;;;;;;;;2090388;28;20171;-58
2022/01/06 02:00:04;;;;;;;7.50;3.27;;;;;;;;;;2090327;28;20258;-57
2022/01/06 02:01:12;;;;;;;9.73;3.30;;;;;;;;;;2090847;28;20203;-59
2022/01/06 02:02:12;;;;;;;11.97;4.47;;;;;;;;;;2090336;28;20551;-58
2022/01/06 02:03:13;;;;;;;6.83;2.90;;;;;;;;;;2090618;28;20172;-55
2022/01/06 02:04:13;;;;;;;7.70;3.13;;;;;;;;;;2090174;28;20176;-55
2022/01/06 02:05:13;;;;;;;8.43;2.90;;;;;;;;;;2090273;28;20959;-58
2022/01/06 02:06:14;;;;;;;9.27;3.37;;;;;;;;;;2087280;28;20609;-55
2022/01/06 02:07:14;;;;;;;10.53;3.33;;;;;;;;;;2089597;28;20167;-58
2022/01/06 02:08:15;;;;;;;6.53;3.17;;;;;;;;;;2086701;28;20651;-55
2022/01/06 02:09:15;;;;;;;7.00;3.00;;;;;;;;;;2089893;28;20538;-59
2022/01/06 02:10:15;;;;;;;9.27;3.30;;;;;;;;;;2079781;28;20641;-58
2022/01/06 02:11:15;;;;;;;8.10;3.57;;;;;;;;;;2065092;28;20177;-56
2022/01/06 02:12:26;;;;;;;11.07;3.57;;;;;;;;;;2080785;28;20313;-59
2022/01/06 02:13:29;;;;;;;9.57;3.37;;;;;;;;;;2089599;28;20183;-54
2022/01/06 02:14:29;;;;;;;10.00;3.90;;;;;;;;;;2090005;28;20659;-57
2022/01/06 02:15:29;;;;;;;8.13;3.30;;;;;;;;;;2089823;28;20176;-57
2022/01/06 02:16:30;;;;;;;7.70;3.23;;;;;;;;;;2089523;28;20636;-59
2022/01/06 02:17:30;;;;;;;5.57;3.23;;;;;;;;;;2090025;28;20184;-61
2022/01/06 02:18:30;;;;;;;8.63;3.37;;;;;;;;;;2083254;28;20279;-59
2022/01/06 02:19:31;;;;;;;9.33;3.80;;;;;;;;;;2083516;28;20195;-58
2022/01/06 02:20:31;;;;;;;7.10;3.10;;;;;;;;;;2083476;28;20171;-61
2022/01/06 02:21:31;;;;;;;10.03;2.97;;;;;;;;;;2082951;28;20192;-61
2022/01/06 02:22:31;;;;;;;11.50;3.27;;;;;;;;;;2090763;28;20225;-59
2022/01/06 02:23:32;;;;;;;5.23;2.73;;;;;;;;;;2091231;28;20172;-58
2022/01/06 02:24:32;;;;;;;5.77;3.07;;;;;;;;;;2090926;28;20221;-59
2022/01/06 02:25:32;;;;;;;9.47;3.57;;;;;;;;;;2090259;28;20234;-59
2022/01/06 02:26:33;;;;;;;7.63;3.50;;;;;;;;;;2090899;28;20208;-58
2022/01/06 02:27:33;;;;;;;7.57;2.67;;;;;;;;;;2090549;28;20220;-54
2022/01/06 02:28:33;;;;;;;7.53;3.10;;;;;;;;;;2090258;28;20186;-55
2022/01/06 02:29:34;;;;;;;7.17;3.20;;;;;;;;;;2090082;28;20595;-60
2022/01/06 02:30:36;;;;;;;12.10;2.80;;;;;;;;;;2090189;28;20203;-56
2022/01/06 02:31:40;;;;;;;8.13;2.83;;;;;;;;;;2090279;28;20171;-56
2022/01/06 02:32:41;;;;;;;10.53;3.00;;;;;;;;;;2090264;28;20176;-56
2022/01/06 02:33:42;;;;;;;6.73;3.10;;;;;;;;;;2090271;28;20179;-54
2022/01/06 02:34:43;;;;;;;9.33;3.53;;;;;;;;;;2090131;28;20656;-58
2022/01/06 02:35:43;;;;;;;6.97;2.70;;;;;;;;;;2089715;28;20674;-56
2022/01/06 02:36:44;;;;;;;10.23;2.70;;;;;;;;;;2089217;28;20171;-58
2022/01/06 02:37:44;;;;;;;12.30;2.90;;;;;;;;;;2080395;28;20226;-53
2022/01/06 02:38:44;;;;;;;8.23;3.60;;;;;;;;;;2080157;28;20188;-60
2022/01/06 02:39:44;;;;;;;8.60;3.20;;;;;;;;;;2080426;28;20180;-56
2022/01/06 02:40:45;;;;;;;13.53;3.43;;;;;;;;;;2080451;28;20164;-58
2022/01/06 02:41:45;;;;;;;7.50;2.63;;;;;;;;;;2089631;28;20171;-52
2022/01/06 02:42:48;;;;;;;8.23;3.93;;;;;;;;;;2089014;28;20196;-57
2022/01/06 02:43:49;;;;;;;7.30;3.13;;;;;;;;;;2088718;28;20213;-56
2022/01/06 02:44:50;;;;;;;10.67;3.30;;;;;;;;;;2086851;28;20270;-57
2022/01/06 02:45:50;;;;;;;6.90;2.97;;;;;;;;;;2087669;28;20187;-56
2022/01/06 02:46:51;;;;;;;6.63;3.47;;;;;;;;;;2087047;28;20167;-59
2022/01/06 02:47:51;;;;;;;9.87;3.77;;;;;;;;;;2108059;22;20923;-60
2022/01/06 02:48:51;;;;;;;9.13;4.03;;;;;;;;;;2075688;28;20822;-63
2022/01/06 02:49:52;;;;;;;9.00;3.43;;;;;;;;;;2071828;28;20719;-61
2022/01/06 02:50:52;;;;;;;5.20;3.90;;;;;;;;;;2072367;28;20204;-61
2022/01/06 02:51:52;;;;;;;9.70;4.13;;;;;;;;;;2071813;28;20221;-61
2022/01/06 02:52:53;;;;;;;9.37;3.83;;;;;;;;;;2071795;28;20252;-60
2022/01/06 02:53:53;;;;;;;10.23;4.23;;;;;;;;;;2078952;28;20176;-61
2022/01/06 02:54:53;;;;;;;6.17;3.43;;;;;;;;;;2080382;28;20164;-61
2022/01/06 02:55:53;;;;;;;5.07;3.20;;;;;;;;;;2071922;28;20189;-60
2022/01/06 02:56:54;;;;;;;7.57;3.77;;;;;;;;;;2072087;28;20260;-59
2022/01/06 02:57:54;;;;;;;13.53;4.20;;;;;;;;;;2078475;28;20270;-58
2022/01/06 02:58:54;;;;;;;7.50;3.90;;;;;;;;;;2080570;28;20200;-60
2022/01/06 02:59:54;;;;;;;10.03;3.37;;;;;;;;;;2087624;28;20369;-61
2022/01/06 03:00:55;;;;;;;11.47;3.77;;;;;;;;;;2081877;28;20569;-62
2022/01/06 03:01:55;;;;;;;9.23;3.90;;;;;;;;;;2072390;28;20196;-62
2022/01/06 03:02:56;;;;;;;10.17;4.17;;;;;;;;;;2072571;28;20669;-61
2022/01/06 03:03:56;;;;;;;7.77;3.47;;;;;;;;;;2078865;28;20203;-60
2022/01/06 03:04:56;;;;;;;10.10;3.93;;;;;;;;;;2073655;28;20351;-59
2022/01/06 03:05:56;;;;;;;10.40;4.40;;;;;;;;;;2085044;28;20236;-57
2022/01/06 03:06:57;;;;;;;7.33;4.23;;;;;;;;;;2081634;28;20184;-61
2022/01/06 03:07:57;;;;;;;14.57;4.80;;;;;;;;;;2085568;28;20230;-60
2022/01/06 03:08:57;;;;;;;14.67;3.90;;;;;;;;;;2083278;28;20180;-59
2022/01/06 03:09:59;;;;;;;10.30;3.40;;;;;;;;;;2085308;28;20176;-61
2022/01/06 03:10:59;;;;;;;9.10;4.30;;;;;;;;;;2087750;28;20279;-59
2022/01/06 03:12:00;;;;;;;10.40;3.87;;;;;;;;;;2081780;28;20208;-60
2022/01/06 03:13:00;;;;;;;9.63;3.50;;;;;;;;;;2072504;28;20196;-60
2022/01/06 03:14:01;;;;;;;5.37;3.30;;;;;;;;;;2074047;28;20263;-61
2022/01/06 03:15:02;;;;;;;6.63;2.93;;;;;;;;;;2081098;28;20173;-60
2022/01/06 03:16:03;;;;;;;6.33;3.50;;;;;;;;;;2088733;28;20171;-59
2022/01/06 03:17:03;;;;;;;11.43;3.87;;;;;;;;;;2081323;28;20180;-59
2022/01/06 03:18:04;;;;;;;6.90;3.10;;;;;;;;;;2084161;28;20196;-59
2022/01/06 03:19:04;;;;;;;8.73;3.33;;;;;;;;;;2076685;28;20632;-59
2022/01/06 03:20:05;;;;;;;9.50;3.40;;;;;;;;;;2073588;28;20181;-57
2022/01/06 03:21:05;;;;;;;9.00;3.37;;;;;;;;;;2088202;28;20206;-57
2022/01/06 03:22:05;;;;;;;9.60;3.07;;;;;;;;;;2078959;28;20653;-58
2022/01/06 03:23:05;;;;;;;9.87;3.70;;;;;;;;;;2080809;28;20192;-59
2022/01/06 03:24:06;;;;;;;10.17;3.70;;;;;;;;;;2087119;28;20191;-56
2022/01/06 03:25:06;;;;;;;10.93;3.43;;;;;;;;;;2075430;28;20177;-60
2022/01/06 03:26:07;;;;;;;7.30;3.70;;;;;;;;;;2087882;28;20178;-58
2022/01/06 03:27:07;;;;;;;9.67;3.60;;;;;;;;;;2076242;28;20595;-60
2022/01/06 03:28:07;;;;;;;9.03;3.70;;;;;;;;;;2089364;28;20222;-60
2022/01/06 03:29:08;;;;;;;9.30;3.37;;;;;;;;;;2074129;28;20180;-61
2022/01/06 03:30:10;;;;;;;5.10;3.57;;;;;;;;;;2085755;28;20195;-59
2022/01/06 03:31:11;;;;;;;8.03;3.53;;;;;;;;;;2071570;28;20268;-58
2022/01/06 03:32:11;;;;;;;10.30;3.77;;;;;;;;;;2071419;28;20196;-58
2022/01/06 03:33:11;;;;;;;6.47;3.60;;;;;;;;;;2081245;28;20180;-58
2022/01/06 03:34:11;;;;;;;6.13;3.27;;;;;;;;;;2072965;28;20176;-58
2022/01/06 03:35:14;;;;;;;9.50;3.57;;;;;;;;;;2080043;28;20224;-56
2022/01/06 03:36:15;;;;;;;10.97;3.73;;;;;;;;;;2074932;28;20173;-60
2022/01/06 03:37:15;;;;;;;12.07;3.33;;;;;;;;;;2085986;28;20703;-60
2022/01/06 03:38:16;;;;;;;10.97;4.13;;;;;;;;;;2077114;28;20196;-56
2022/01/06 03:39:16;;;;;;;11.87;3.50;;;;;;;;;;2073604;28;20670;-57
2022/01/06 03:40:16;;;;;;;10.07;4.07;;;;;;;;;;2071994;28;20180;-57
2022/01/06 03:41:17;;;;;;;9.23;4.10;;;;;;;;;;2087923;28;20192;-58
2022/01/06 03:42:17;;;;;;;9.83;3.70;;;;;;;;;;2080000;28;20558;-61
2022/01/06 03:43:17;;;;;;;14.33;3.77;;;;;;;;;;2075052;28;20200;-59
2022/01/06 03:44:18;;;;;;;9.20;3.43;;;;;;;;;;2087604;28;20620;-58
2022/01/06 03:45:18;;;;;;;9.20;3.57;;;;;;;;;;2079688;28;20179;-58
2022/01/06 03:46:19;;;;;;;8.70;4.00;;;;;;;;;;2082753;28;20548;-56
2022/01/06 03:47:19;;;;;;;9.20;3.67;;;;;;;;;;2087269;28;20179;-59
2022/01/06 03:48:19;;;;;;;8.83;3.23;;;;;;;;;;2088380;28;20250;-57
2022/01/06 03:49:20;;;;;;;14.17;3.70;;;;;;;;;;2084530;28;20180;-60
2022/01/06 03:50:20;;;;;;;8.63;3.40;;;;;;;;;;2085232;28;20180;-57
2022/01/06 03:51:23;;;;;;;15.13;3.77;;;;;;;;;;2087518;28;20167;-58
2022/01/06 03:52:23;;;;;;;8.13;3.27;;;;;;;;;;2082241;28;20188;-60
2022/01/06 03:53:23;;;;;;;8.57;3.33;;;;;;;;;;2087013;28;20163;-57
2022/01/06 03:54:23;;;;;;;11.07;3.40;;;;;;;;;;2082893;28;20180;-58
2022/01/06 03:55:24;;;;;;;14.00;4.27;;;;;;;;;;2086455;28;20168;-58
2022/01/06 03:56:24;;;;;;;11.23;3.20;;;;;;;;;;2077664;28;20233;-60
2022/01/06 03:57:24;;;;;;;8.23;3.47;;;;;;;;;;2079211;28;20203;-57
2022/01/06 03:58:25;;;;;;;12.30;3.20;;;;;;;;;;2086359;28;20168;-58
2022/01/06 03:59:25;;;;;;;13.70;3.50;;;;;;;;;;2085809;28;20183;-59
2022/01/06 04:00:25;;;;;;;10.47;3.70;;;;;;;;;;2083322;28;20644;-61
2022/01/06 04:01:25;;;;;;;10.43;3.63;;;;;;;;;;2077745;28;20183;-58
2022/01/06 04:02:26;;;;;;;12.57;3.63;;;;;;;;;;2073157;28;20177;-58
2022/01/06 04:03:26;;;;;;;10.73;3.60;;;;;;;;;;2085333;28;20676;-57
2022/01/06 04:04:26;;;;;;;13.70;4.30;;;;;;;;;;2079905;28;20165;-60
2022/01/06 04:05:26;;;;;;;8.43;3.87;;;;;;;;;;2085963;28;20191;-58
2022/01/06 04:06:27;;;;;;;11.63;3.93;;;;;;;;;;2080701;28;20173;-59
2022/01/06 04:07:27;;;;;;;6.97;3.80;;;;;;;;;;2085907;28;20516;-59
2022/01/06 04:08:27;;;;;;;5.57;3.63;;;;;;;;;;2084529;28;20242;-58
2022/01/06 04:09:27;;;;;;;12.43;4.03;;;;;;;;;;2086354;28;20266;-61
2022/01/06 04:10:28;;;;;;;8.03;3.40;;;;;;;;;;2082884;28;20198;-60
2022/01/06 04:11:28;;;;;;;8.83;3.77;;;;;;;;;;2078896;28;20180;-61
2022/01/06 04:12:28;;;;;;;9.10;3.90;;;;;;;;;;2081233;28;20172;-58
2022/01/06 04:13:29;;;;;;;8.03;3.47;;;;;;;;;;2079561;28;20680;-58
2022/01/06 04:14:29;;;;;;;12.20;4.07;;;;;;;;;;2085903;28;20660;-55
2022/01/06 04:15:29;;;;;;;11.47;3.47;;;;;;;;;;2081191;28;20206;-57
2022/01/06 04:16:34;;;;;;;11.10;4.40;;;;;;;;;;2087262;28;20180;-55
2022/01/06 04:17:34;;;;;;;11.17;3.70;;;;;;;;;;2079303;28;20213;-59
2022/01/06 04:18:34;;;;;;;9.97;4.23;;;;;;;;;;2077730;28;20173;-58
2022/01/06 04:19:35;;;;;;;10.97;4.20;;;;;;;;;;2073525;28;20166;-57
2022/01/06 04:20:35;;;;;;;11.23;4.13;;;;;;;;;;2082294;28;20176;-57
2022/01/06 04:21:35;;;;;;;8.00;3.43;;;;;;;;;;2084247;28;20711;-57
2022/01/06 04:22:36;;;;;;;11.10;4.47;;;;;;;;;;2082886;28;20198;-60
2022/01/06 04:23:36;;;;;;;8.90;4.07;;;;;;;;;;2084901;28;20272;-57
2022/01/06 04:24:36;;;;;;;11.13;4.90;;;;;;;;;;2075872;28;20172;-57
2022/01/06 04:25:37;;;;;;;9.20;4.40;;;;;;;;;;2075374;28;20181;-58
2022/01/06 04:26:37;;;;;;;16.73;4.40;;;;;;;;;;2076083;28;20176;-58
2022/01/06 04:27:37;;;;;;;15.13;4.87;;;;;;;;;;2082066;28;20180;-60
2022/01/06 04:28:38;;;;;;;10.17;4.93;;;;;;;;;;2075735;28;20175;-59
2022/01/06 04:29:38;;;;;;;16.57;5.27;;;;;;;;;;2075904;28;20657;-59
2022/01/06 04:30:38;;;;;;;17.97;5.17;;;;;;;;;;2077900;28;20244;-58
2022/01/06 04:31:38;;;;;;;19.03;5.53;;;;;;;;;;2081105;28;20198;-57
2022/01/06 04:32:39;;;;;;;11.53;4.60;;;;;;;;;;2084747;28;20176;-56
2022/01/06 04:33:39;;;;;;;12.30;5.07;;;;;;;;;;2080702;28;20264;-60
2022/01/06 04:34:39;;;;;;;10.47;4.83;;;;;;;;;;2080762;28;20196;-58
2022/01/06 04:35:39;;;;;;;13.10;5.87;;;;;;;;;;2083204;28;20176;-59
2022/01/06 04:36:46;;;;;;;14.47;5.33;;;;;;;;;;2071628;28;20169;-59
2022/01/06 04:37:47;;;;;;;18.20;4.83;;;;;;;;;;2071948;28;20205;-57
2022/01/06 04:38:47;;;;;;;11.57;5.30;;;;;;;;;;2074689;28;20196;-57
2022/01/06 04:39:47;;;;;;;12.47;5.60;;;;;;;;;;2076091;28;20177;-58
2022/01/06 04:40:47;;;;;;;14.57;5.27;;;;;;;;;;2085894;28;20652;-57
2022/01/06 04:41:47;;;;;;;11.37;5.63;;;;;;;;;;2079902;28;20189;-59
2022/01/06 04:42:48;;;;;;;13.47;5.10;;;;;;;;;;2085791;28;20167;-59
2022/01/06 04:43:48;;;;;;;14.80;5.63;;;;;;;;;;2089693;28;20214;-60
2022/01/06 04:44:48;;;;;;;17.47;5.57;;;;;;;;;;2089659;28;20202;-61
2022/01/06 04:45:49;;;;;;;15.73;5.73;;;;;;;;;;2088731;28;20202;-60
2022/01/06 04:46:49;;;;;;;18.27;5.27;;;;;;;;;;2084751;28;20168;-61
2022/01/06 04:47:49;;;;;;;15.80;5.33;;;;;;;;;;2072876;28;20732;-57
2022/01/06 04:48:49;;;;;;;14.97;5.93;;;;;;;;;;2073448;28;20173;-58
2022/01/06 04:49:50;;;;;;;11.10;6.20;;;;;;;;;;2082002;28;20192;-60
2022/01/06 04:50:50;;;;;;;14.63;5.03;;;;;;;;;;2088369;28;20179;-60
2022/01/06 04:51:50;;;;;;;18.03;5.33;;;;;;;;;;2087341;28;20202;-60
2022/01/06 04:52:51;;;;;;;17.17;5.67;;;;;;;;;;2089173;28;20163;-58
2022/01/06 04:53:51;;;;;;;11.50;4.90;;;;;;;;;;2088505;28;20207;-61
2022/01/06 04:54:51;;;;;;;12.37;5.13;;;;;;;;;;2084683;28;20183;-58
2022/01/06 04:55:54;;;;;;;12.40;4.90;;;;;;;;;;2081809;28;20172;-57
2022/01/06 04:56:54;;;;;;;13.43;5.27;;;;;;;;;;2087193;28;20263;-59
2022/01/06 04:57:54;;;;;;;18.67;5.40;;;;;;;;;;2079526;28;20456;-60
2022/01/06 04:58:55;;;;;;;17.27;5.60;;;;;;;;;;2075013;28;20172;-60
2022/01/06 04:59:55;;;;;;;11.70;5.27;;;;;;;;;;2073124;28;20220;-59
2022/01/06 05:00:55;;;;;;;15.90;4.90;;;;;;;;;;2073408;28;20181;-60
2022/01/06 05:01:55;;;;;;;10.60;4.53;;;;;;;;;;2088606;28;20180;-60
2022/01/06 05:02:55;;;;;;;15.33;5.30;;;;;;;;;;2082870;28;20217;-57
2022/01/06 05:03:56;;;;;;;14.10;5.10;;;;;;;;;;2088737;28;20168;-60
2022/01/06 05:04:56;;;;;;;13.03;5.20;;;;;;;;;;2072351;28;20177;-61
2022/01/06 05:05:56;;;;;;;14.83;5.30;;;;;;;;;;2078793;28;20180;-60
2022/01/06 05:06:56;;;;;;;14.10;5.13;;;;;;;;;;2088089;28;20202;-60
2022/01/06 05:07:57;;;;;;;15.27;4.87;;;;;;;;;;2089638;28;20572;-60
2022/01/06 05:08:57;;;;;;;16.83;5.37;;;;;;;;;;2087894;28;20535;-60
2022/01/06 05:09:57;;;;;;;15.50;5.13;;;;;;;;;;2082618;28;20262;-60
2022/01/06 05:10:57;;;;;;;14.60;5.80;;;;;;;;;;2089420;28;20172;-59
2022/01/06 05:11:58;;;;;;;13.20;5.13;;;;;;;;;;2067774;28;20259;-63
2022/01/06 05:12:58;;;;;;;15.40;5.00;;;;;;;;;;2080884;28;20169;-61
2022/01/06 05:13:58;;;;;;;14.17;5.80;;;;;;;;;;2075454;28;20169;-58
2022/01/06 05:14:59;;;;;;;16.67;5.50;;;;;;;;;;2078802;28;20168;-61
2022/01/06 05:15:59;;;;;;;17.63;5.10;;;;;;;;;;2074150;28;20185;-62
2022/01/06 05:17:00;;;;;;;13.87;4.70;;;;;;;;;;2083265;28;20168;-63
2022/01/06 05:18:00;;;;;;;10.17;5.03;;;;;;;;;;2088430;28;20196;-61
2022/01/06 05:19:00;;;;;;;15.40;5.70;;;;;;;;;;2091130;28;20199;-62
2022/01/06 05:20:01;;;;;;;22.80;5.23;;;;;;;;;;2084219;28;20166;-60
2022/01/06 05:21:01;;;;;;;14.80;5.97;;;;;;;;;;2082987;28;20169;-60
2022/01/06 05:22:02;;;;;;;20.27;5.27;;;;;;;;;;2086876;28;20225;-61
2022/01/06 05:23:03;;;;;;;17.53;4.70;;;;;;;;;;2084620;28;20184;-62
2022/01/06 05:24:11;;;;;;;13.77;4.67;;;;;;;;;;2081612;28;20319;-62
2022/01/06 05:25:12;;;;;;;15.40;5.27;;;;;;;;;;2063632;28;20185;-60
2022/01/06 05:26:12;;;;;;;15.40;5.57;;;;;;;;;;2072937;28;20204;-60
2022/01/06 05:27:13;;;;;;;10.60;4.70;;;;;;;;;;2084744;28;20648;-61
2022/01/06 05:28:13;;;;;;;8.27;4.23;;;;;;;;;;2080688;28;20257;-59
2022/01/06 05:29:13;;;;;;;16.03;5.13;;;;;;;;;;2073598;28;20276;-58
2022/01/06 05:30:13;;;;;;;15.20;4.83;;;;;;;;;;2087563;28;20809;-60
2022/01/06 05:31:14;;;;;;;13.63;5.60;;;;;;;;;;2082658;28;20202;-59
2022/01/06 05:32:14;;;;;;;16.37;5.53;;;;;;;;;;2089604;28;20203;-60
2022/01/06 05:33:14;;;;;;;17.57;5.47;;;;;;;;;;2081290;28;20176;-60
2022/01/06 05:34:15;;;;;;;18.13;5.43;;;;;;;;;;2089265;28;20182;-56
2022/01/06 05:35:15;;;;;;;11.13;4.90;;;;;;;;;;2075982;28;20375;-58
2022/01/06 05:36:16;;;;;;;14.10;5.30;;;;;;;;;;2080858;28;20176;-65
2022/01/06 05:37:16;;;;;;;18.97;5.60;;;;;;;;;;2081015;28;20180;-60
2022/01/06 05:38:16;;;;;;;15.90;5.50;;;;;;;;;;2075526;28;20186;-60
2022/01/06 05:39:17;;;;;;;19.97;5.43;;;;;;;;;;2081468;28;20184;-60
2022/01/06 05:40:17;;;;;;;15.60;5.23;;;;;;;;;;2073676;28;20578;-61
2022/01/06 05:41:17;;;;;;;12.80;4.77;;;;;;;;;;2064128;28;20170;-60
2022/01/06 05:42:17;;;;;;;10.03;4.73;;;;;;;;;;2074326;28;20589;-60
2022/01/06 05:43:20;;;;;;;15.20;5.63;;;;;;;;;;2081869;28;20204;-60
2022/01/06 05:44:20;;;;;;;19.47;5.87;;;;;;;;;;2082615;28;20180;-60
2022/01/06 05:45:20;;;;;;;17.67;5.70;;;;;;;;;;2081858;28;20210;-60
2022/01/06 05:46:21;;;;;;;16.00;5.50;;;;;;;;;;2073862;28;20633;-60
2022/01/06 05:47:21;;;;;;;12.80;5.43;;;;;;;;;;2079181;28;20176;-60
2022/01/06 05:48:22;;;;;;;17.20;5.73;;;;;;;;;;2079430;28;20243;-60
2022/01/06 05:49:22;;;;;;;19.70;6.07;;;;;;;;;;2075520;28;20654;-59
2022/01/06 05:50:22;;;;;;;10.63;5.83;;;;;;;;;;2088638;28;20186;-61
2022/01/06 05:51:23;;;;;;;14.97;5.57;;;;;;;;;;2085014;28;20172;-60
2022/01/06 05:52:23;;;;;;;13.17;4.73;;;;;;;;;;2089003;28;20204;-59
2022/01/06 05:53:23;;;;;;;11.83;4.90;;;;;;;;;;2085616;28;20204;-60
2022/01/06 05:54:23;;;;;;;16.90;5.67;;;;;;;;;;2086799;28;20204;-58
2022/01/06 05:55:24;;;;;;;19.17;5.37;;;;;;;;;;2075380;28;20240;-58
2022/01/06 05:56:26;;;;;;;17.40;5.60;;;;;;;;;;2070614;28;20229;-61
2022/01/06 05:57:27;;;;;;;21.80;6.20;;;;;;;;;;2081940;28;20968;-59
2022/01/06 05:58:27;;;;;;;19.40;6.20;;;;;;;;;;2086931;28;20184;-60
2022/01/06 05:59:29;;;;;;;17.70;5.53;;;;;;;;;;2088474;28;20731;-59
2022/01/06 06:00:29;;;;;;;18.07;6.10;;;;;;;;;;2081080;28;20270;-61
2022/01/06 06:01:29;;;;;;;18.60;6.17;;;;;;;;;;2069238;28;20199;-60
2022/01/06 06:02:29;;;;;;;19.83;7.10;;;;;;;;;;2073589;28;20218;-60
2022/01/06 06:03:30;;;;;;;16.83;5.47;;;;;;;;;;2082881;28;20173;-59
2022/01/06 06:04:30;;;;;;;16.00;5.80;;;;;;;;;;2081549;28;20253;-60
2022/01/06 06:05:30;;;;;;;16.43;5.83;;;;;;;;;;2081296;28;20167;-61
2022/01/06 06:06:31;;;;;;;19.97;5.83;;;;;;;;;;2083948;28;20191;-60
2022/01/06 06:07:31;;;;;;;21.47;6.27;;;;;;;;;;2085256;28;20267;-61